Redwood City, CA (94065)

2:38 PM PST on March 03, 2015 (GMT -0800)
Belmont - Island Park | Change Station
CLOSE
Current Station
Personal Weather Station
Location: Belmont, CA
Elevation: 5 ft
Nearby Weather Stations

Elev 5 ft 37.53 °N, 122.27 °W | Updated 23 seconds ago

Scattered Clouds
Scattered Clouds
64.4 °F
Feels Like 64.4 °F
N
2.2
Wind Variable Wind from NNW
Gusts 2.2 mph

Today
High -- | Low -- °F
--% Chance of Precip.
Yesterday
High -- | Low -- °F
Precip. -- in
6:37 AM 6:04 PM
Waxing Gibbous, 97% visible
Pressure 30.02 in
Visibility 10.0 miles
Clouds Scattered Clouds 2500 ft
Dew Point 43 °F
Humidity 45%
Rainfall 0.00 in
Snow Depth Not available.
UV 4 out of 12
Pollen 8.20 out of 12
Air Quality Not available.
Flu Activity Not available.
METAR KSQL 032147Z 34008KT 10SM SCT025 18/05 A3002

More Conditions Fewer Conditions

Pressure 30.02 in
Visibility 10.0 miles
Clouds Scattered Clouds 2500 ft
Dew Point 43 °F
Humidity 45%
Rainfall 0.00 in
Snow Depth Not available.
UV 4 out of 12
Pollen 8.20 out of 12
Air Quality Not available.
Flu Activity Not available.
METAR KSQL 032147Z 34008KT 10SM SCT025 18/05 A3002

More Conditions Fewer Conditions

10-Day Weather Forecast

Almanac

Astronomy

Mar. 03, 2015 Rise Set
Actual Time
Civil Twilight
Nautical Twilight
Astronomical Twilight
Moon
Length of Visible Light
Length of Day
Tomorrow will be .
, % of the Moon is Illuminated

Today's Extremes

State Highs State Lows

Community

WunderPhotos

Upload Photos

1,802,297 photos uploaded!

WunderBlogs® & News

Nearby

Air Quality

  Air Quality AQ Index Pollutant
Not available.

Snow Depth

Station Depth Elevation

Earthquake Activity

City Distance Mag. Time & Date
Minimum magnitude displayed is 2.5.

Coastal Water Temperatures

Place Temperature

Nearby Weather Stations